createdAt,value
2022-12-05T00:00:24.258Z,58.42
2022-12-05T00:05:27.761Z,57.98
2022-12-05T00:10:31.264Z,57.05
2022-12-05T00:15:39.785Z,57.16
2022-12-05T00:20:46.809Z,57.51
2022-12-05T00:25:50.240Z,57.21
2022-12-05T00:30:55.145Z,58.13
2022-12-05T00:36:03.717Z,57.95
2022-12-05T00:41:07.965Z,58.49
2022-12-05T00:46:16.162Z,57.62
2022-12-05T00:51:22.038Z,57.03
2022-12-05T00:56:26.531Z,58.07
2022-12-05T01:01:33.265Z,57.29
2022-12-05T01:06:36.979Z,57.43
2022-12-05T01:11:41.655Z,57.28
2022-12-05T01:16:48.357Z,58.46
2022-12-05T01:21:52.047Z,57.55
2022-12-05T01:26:55.632Z,57.43
2022-12-05T01:32:00.724Z,58.65
2022-12-05T01:37:04.267Z,58.14
2022-12-05T01:42:08.007Z,57.55
2022-12-05T01:47:13.002Z,57.59
2022-12-05T01:52:19.385Z,57.60
2022-12-05T01:57:23.899Z,57.21
2022-12-05T02:02:30.225Z,58.63
2022-12-05T02:07:34.254Z,57.36
2022-12-05T02:12:39.220Z,57.83
2022-12-05T02:17:53.035Z,57.55
2022-12-05T02:23:38.633Z,58.80
2022-12-05T02:29:20.128Z,57.31
2022-12-05T02:34:28.920Z,57.91
2022-12-05T02:39:41.573Z,57.86
2022-12-05T02:44:48.553Z,58.25
2022-12-05T02:49:54.113Z,57.86
2022-12-05T02:54:57.669Z,59.07
2022-12-05T03:00:01.108Z,59.41
2022-12-05T03:05:16.561Z,57.84
2022-12-05T03:10:23.637Z,57.54
2022-12-05T03:15:30.919Z,58.68
2022-12-05T03:20:38.906Z,58.01
2022-12-05T03:25:47.961Z,59.25
2022-12-05T03:30:54.842Z,59.25
2022-12-05T03:36:03.988Z,57.70
2022-12-05T03:41:11.125Z,59.01
2022-12-05T03:46:17.813Z,59.20
2022-12-05T03:51:25.222Z,58.92
2022-12-05T03:56:32.719Z,58.03
2022-12-05T04:01:37.050Z,59.47
2022-12-05T04:06:42.684Z,58.45
2022-12-05T04:11:49.461Z,58.75
2022-12-05T04:17:04.862Z,57.87
2022-12-05T04:22:09.804Z,57.80
2022-12-05T04:27:24.107Z,57.67
2022-12-05T04:32:30.641Z,59.09
2022-12-05T04:37:40.788Z,57.97
2022-12-05T04:42:44.939Z,59.59
2022-12-05T04:47:51.814Z,59.52
2022-12-05T04:52:58.574Z,58.45
2022-12-05T04:58:07.819Z,60.05
2022-12-05T05:03:14.983Z,59.21
2022-12-05T05:08:21.134Z,58.87
2022-12-05T05:13:24.731Z,60.09
2022-12-05T05:18:28.242Z,59.99
2022-12-05T05:23:33.106Z,58.24
2022-12-05T05:28:36.534Z,59.39
2022-12-05T05:33:40.290Z,59.54
2022-12-05T05:38:46.258Z,58.47
2022-12-05T05:43:50.517Z,59.28
2022-12-05T05:48:54.168Z,59.24
2022-12-05T05:53:59.528Z,58.64
2022-12-05T05:59:05.113Z,59.99
2022-12-05T06:04:08.868Z,59.32
2022-12-05T06:09:13.865Z,59.69
2022-12-05T06:14:17.305Z,58.62
2022-12-05T06:19:20.756Z,59.60
2022-12-05T06:24:25.674Z,60.24
2022-12-05T06:29:33.502Z,60.11
2022-12-05T06:34:37.738Z,59.55
2022-12-05T06:39:42.815Z,58.25
2022-12-05T06:44:46.282Z,59.64
2022-12-05T06:49:49.861Z,59.48
2022-12-05T06:54:54.749Z,59.05
2022-12-05T07:00:22.475Z,59.47
2022-12-05T07:05:25.997Z,60.25
2022-12-05T07:10:30.854Z,60.17
2022-12-05T07:15:34.391Z,59.74
2022-12-05T07:21:03.973Z,59.40
2022-12-05T07:26:06.250Z,58.25
2022-12-05T07:31:11.430Z,59.70
2022-12-05T07:36:16.337Z,59.56
2022-12-05T07:41:23.738Z,59.14
2022-12-05T07:46:28.112Z,58.72
2022-12-05T07:51:31.926Z,59.99
2022-12-05T07:56:40.922Z,58.99
2022-12-05T08:01:46.850Z,59.34
2022-12-05T08:06:50.432Z,60.64
2022-12-05T08:11:55.361Z,58.96
2022-12-05T08:16:58.980Z,60.35
2022-12-05T08:22:02.531Z,60.18
2022-12-05T08:27:08.344Z,58.73
2022-12-05T08:32:11.889Z,60.33
2022-12-05T08:37:15.383Z,60.86
2022-12-05T08:42:20.309Z,59.61
2022-12-05T08:47:23.825Z,60.44
2022-12-05T08:52:27.371Z,59.22
2022-12-05T08:57:32.262Z,60.68
2022-12-05T09:02:35.837Z,60.53
2022-12-05T09:07:39.365Z,60.79
2022-12-05T09:12:44.220Z,61.28
2022-12-05T09:17:47.814Z,60.92
2022-12-05T09:22:51.320Z,60.80
2022-12-05T09:27:56.637Z,60.70
2022-12-05T09:33:00.170Z,61.20
2022-12-05T09:38:03.698Z,60.96
2022-12-05T09:43:09.117Z,60.44
2022-12-05T09:48:15.652Z,60.90
2022-12-05T09:53:27.563Z,60.24
2022-12-05T09:58:41.611Z,60.15
2022-12-05T10:03:48.640Z,59.50
2022-12-05T10:09:06.549Z,60.70
2022-12-05T10:14:15.485Z,61.56
2022-12-05T10:19:23.374Z,59.87
2022-12-05T10:24:32.223Z,59.92
2022-12-05T10:29:40.114Z,60.50
2022-12-05T10:34:45.673Z,60.97
2022-12-05T10:39:50.428Z,60.37
2022-12-05T10:44:58.501Z,60.78
2022-12-05T10:50:06.630Z,59.85
2022-12-05T10:55:15.581Z,59.88
2022-12-05T11:00:25.477Z,59.17
2022-12-05T11:05:31.140Z,60.22
2022-12-05T11:10:37.890Z,60.63
2022-12-05T11:15:49.404Z,60.64
2022-12-05T11:20:55.724Z,61.66
2022-12-05T11:26:00.129Z,60.15
2022-12-05T11:31:06.671Z,61.52
2022-12-05T11:36:14.518Z,60.11
2022-12-05T11:41:32.625Z,61.34
2022-12-05T11:46:48.122Z,60.56
2022-12-05T11:51:59.659Z,60.88
2022-12-05T11:57:08.288Z,61.56
2022-12-05T12:02:22.283Z,60.16
2022-12-05T12:07:41.196Z,60.51
2022-12-05T12:12:53.254Z,61.54
2022-12-05T12:18:04.237Z,61.03
2022-12-05T12:23:20.021Z,60.19
2022-12-05T12:28:32.711Z,60.92
2022-12-05T12:33:40.703Z,60.64
2022-12-05T12:39:05.249Z,61.57
2022-12-05T12:44:25.193Z,60.38
2022-12-05T12:49:41.385Z,61.65
2022-12-05T12:55:04.217Z,62.25
2022-12-05T13:00:17.314Z,61.90
2022-12-05T13:05:25.192Z,60.90
2022-12-05T13:10:33.214Z,61.25
2022-12-05T13:15:41.127Z,62.66
2022-12-05T13:20:46.248Z,62.52
2022-12-05T13:25:50.511Z,61.40
2022-12-05T13:31:01.784Z,61.10
2022-12-05T13:36:28.997Z,61.60
2022-12-05T13:42:00.370Z,61.09
2022-12-05T13:47:07.547Z,60.50
2022-12-05T13:52:16.185Z,62.21
2022-12-05T13:57:48.859Z,61.59
2022-12-05T14:02:54.196Z,60.84
2022-12-05T14:08:03.660Z,60.93
2022-12-05T14:13:42.181Z,62.07
2022-12-05T14:18:50.046Z,62.71
2022-12-05T14:24:08.633Z,62.24
2022-12-05T14:29:35.794Z,62.88
2022-12-05T14:34:40.163Z,61.25
2022-12-05T14:39:46.974Z,61.02
2022-12-05T14:44:51.448Z,61.15
2022-12-05T14:50:02.260Z,62.30
2022-12-05T14:55:14.372Z,61.29
2022-12-05T15:00:22.618Z,62.20
2022-12-05T15:05:28.942Z,62.19
2022-12-05T15:10:36.413Z,62.19
2022-12-05T15:15:44.269Z,62.35
2022-12-05T15:20:52.487Z,62.26
2022-12-05T15:26:07.670Z,60.90
2022-12-05T15:31:20.939Z,61.60
2022-12-05T15:36:29.979Z,62.50
2022-12-05T15:41:35.191Z,61.48
2022-12-05T15:46:38.755Z,60.88
2022-12-05T15:51:42.312Z,61.95
2022-12-05T15:56:50.387Z,61.40
2022-12-05T16:01:56.886Z,62.90
2022-12-05T16:07:05.025Z,62.33
2022-12-05T16:12:20.915Z,61.25
2022-12-05T16:17:24.613Z,62.00
2022-12-05T16:22:29.224Z,62.78
2022-12-05T16:27:39.048Z,61.73
2022-12-05T16:32:43.241Z,61.89
2022-12-05T16:37:46.735Z,62.61
2022-12-05T16:43:02.896Z,62.80
2022-12-05T16:48:16.144Z,60.92
2022-12-05T16:53:23.028Z,61.34
2022-12-05T16:58:30.058Z,61.18
2022-12-05T17:03:35.422Z,61.38
2022-12-05T17:08:39.790Z,61.51
2022-12-05T17:13:45.554Z,61.94
2022-12-05T17:18:49.258Z,61.48
2022-12-05T17:23:53.094Z,62.85
2022-12-05T17:28:58.218Z,62.49
2022-12-05T17:34:01.738Z,62.07
2022-12-05T17:39:05.400Z,62.16
2022-12-05T17:44:12.770Z,62.34
2022-12-05T17:49:20.285Z,62.06
2022-12-05T17:54:23.822Z,62.59
2022-12-05T17:59:28.758Z,63.71
2022-12-05T18:04:32.325Z,63.44
2022-12-05T18:09:35.770Z,63.67
2022-12-05T18:14:40.661Z,63.07
2022-12-05T18:19:44.104Z,62.73
2022-12-05T18:24:47.589Z,62.26
2022-12-05T18:29:52.665Z,63.59
2022-12-05T18:34:59.225Z,63.82
2022-12-05T18:40:02.933Z,64.13
2022-12-05T18:45:09.285Z,63.58
2022-12-05T18:50:12.947Z,62.15
2022-12-05T18:55:19.796Z,63.55
2022-12-05T19:00:28.473Z,64.00
2022-12-05T19:05:32.159Z,63.31
2022-12-05T19:10:37.602Z,63.90
2022-12-05T19:15:42.484Z,62.85
2022-12-05T19:20:51.709Z,63.34
2022-12-05T19:25:56.932Z,63.24
2022-12-05T19:31:03.016Z,63.90
2022-12-05T19:36:08.628Z,64.83
2022-12-05T19:41:14.094Z,63.12
2022-12-05T19:46:21.141Z,63.03
2022-12-05T19:51:25.018Z,64.43
2022-12-05T19:56:30.053Z,63.58
2022-12-05T20:01:37.235Z,64.13
2022-12-05T20:06:42.770Z,63.37
2022-12-05T20:11:54.093Z,62.90
2022-12-05T20:17:00.261Z,64.79
2022-12-05T20:22:03.864Z,64.68
2022-12-05T20:27:07.549Z,63.30
2022-12-05T20:32:12.423Z,63.42
2022-12-05T20:37:15.972Z,64.18
2022-12-05T20:42:19.444Z,64.82
2022-12-05T20:47:24.409Z,63.38
2022-12-05T20:52:27.898Z,64.50
2022-12-05T20:57:33.412Z,63.98
2022-12-05T21:02:38.366Z,63.41
2022-12-05T21:07:41.967Z,64.96
2022-12-05T21:12:45.490Z,64.04
2022-12-05T21:17:50.342Z,63.60
2022-12-05T21:22:53.911Z,63.74
2022-12-05T21:27:57.434Z,64.91
2022-12-05T21:33:02.337Z,63.04
2022-12-05T21:38:05.830Z,63.42
2022-12-05T21:43:09.297Z,64.79
2022-12-05T21:48:14.203Z,63.80
2022-12-05T21:53:17.980Z,63.28
2022-12-05T21:58:21.525Z,64.20
2022-12-05T22:03:26.386Z,64.24
2022-12-05T22:08:30.586Z,63.89
2022-12-05T22:13:34.349Z,64.71
2022-12-05T22:18:39.486Z,64.14
2022-12-05T22:23:43.029Z,64.78
2022-12-05T22:28:46.824Z,63.30
2022-12-05T22:33:51.911Z,64.73
2022-12-05T22:38:55.403Z,63.79
2022-12-05T22:44:00.432Z,63.50
2022-12-05T22:49:06.356Z,64.42
2022-12-05T22:54:09.852Z,64.56
2022-12-05T22:59:14.864Z,63.86
2022-12-05T23:04:20.362Z,63.86
2022-12-05T23:09:24.076Z,65.41
2022-12-05T23:14:27.602Z,65.26
2022-12-05T23:19:32.498Z,64.62
2022-12-05T23:24:35.986Z,65.14
2022-12-05T23:29:39.502Z,65.19
2022-12-05T23:34:44.402Z,63.64
2022-12-05T23:39:47.898Z,64.45
2022-12-05T23:44:51.421Z,64.68
2022-12-05T23:49:56.453Z,63.42
2022-12-05T23:55:00.245Z,63.70
